createdAt,value
2018-12-24T00:00:34.926Z,11.30
2018-12-24T00:03:10.901Z,11.40
2018-12-24T00:05:40.667Z,11.40
2018-12-24T00:08:10.620Z,11.40
2018-12-24T00:10:40.279Z,11.40
2018-12-24T00:13:10.115Z,11.40
2018-12-24T00:15:42.358Z,11.40
2018-12-24T00:18:13.427Z,11.40
2018-12-24T00:20:46.504Z,11.50
2018-12-24T00:23:16.161Z,11.50
2018-12-24T00:25:45.822Z,11.40
2018-12-24T00:28:15.749Z,11.50
2018-12-24T00:30:45.471Z,11.60
2018-12-24T00:33:15.277Z,11.60
2018-12-24T00:35:45.049Z,11.60
2018-12-24T00:38:14.654Z,11.60
2018-12-24T00:40:44.523Z,11.50
2018-12-24T00:43:14.189Z,11.60
2018-12-24T00:45:53.377Z,11.70
2018-12-24T00:48:23.259Z,11.60
2018-12-24T00:50:52.933Z,11.60
2018-12-24T00:53:22.726Z,11.70
2018-12-24T00:55:52.800Z,11.70
2018-12-24T00:58:23.125Z,11.60
2018-12-24T01:00:53.038Z,11.60
2018-12-24T01:03:26.993Z,11.60
2018-12-24T01:05:56.559Z,11.60
2018-12-24T01:08:32.777Z,11.60
2018-12-24T01:11:06.680Z,11.70
2018-12-24T01:13:47.292Z,11.70
2018-12-24T01:16:25.765Z,11.70
2018-12-24T01:19:07.831Z,11.60
2018-12-24T01:21:37.520Z,11.60
2018-12-24T01:24:08.889Z,11.60
2018-12-24T01:26:38.945Z,11.50
2018-12-24T01:29:16.191Z,11.50
2018-12-24T01:31:46.185Z,11.60
2018-12-24T01:34:16.005Z,11.60
2018-12-24T01:36:46.013Z,11.50
2018-12-24T01:39:16.093Z,11.50
2018-12-24T01:41:46.251Z,11.50
2018-12-24T01:44:16.196Z,11.50
2018-12-24T01:46:46.256Z,11.50
2018-12-24T01:49:16.083Z,11.40
2018-12-24T01:51:45.877Z,11.50
2018-12-24T01:54:15.674Z,11.40
2018-12-24T01:56:45.436Z,11.40
2018-12-24T01:59:16.852Z,11.50
2018-12-24T02:01:46.417Z,11.40
2018-12-24T02:04:16.021Z,11.40
2018-12-24T02:06:45.950Z,11.40
2018-12-24T02:09:15.700Z,11.40
2018-12-24T02:11:45.426Z,11.40
2018-12-24T02:14:15.270Z,11.30
2018-12-24T02:16:45.185Z,11.30
2018-12-24T02:19:14.977Z,11.30
2018-12-24T02:21:44.774Z,11.30
2018-12-24T02:24:15.130Z,11.30
2018-12-24T02:26:45.029Z,11.40
2018-12-24T02:29:14.967Z,11.30
2018-12-24T02:31:45.468Z,11.40
2018-12-24T02:34:15.564Z,11.30
2018-12-24T02:36:45.242Z,11.40
2018-12-24T02:39:15.006Z,11.40
2018-12-24T02:41:44.975Z,11.40
2018-12-24T02:44:15.082Z,11.40
2018-12-24T02:46:45.057Z,11.30
2018-12-24T02:49:15.176Z,11.40
2018-12-24T02:51:45.242Z,11.40
2018-12-24T02:54:15.200Z,11.40
2018-12-24T02:56:45.455Z,11.40
2018-12-24T02:59:15.124Z,11.50
2018-12-24T03:01:44.805Z,11.50
2018-12-24T03:04:14.368Z,11.60
2018-12-24T03:06:44.249Z,11.50
2018-12-24T03:09:16.002Z,11.50
2018-12-24T03:11:45.622Z,11.50
2018-12-24T03:14:15.221Z,11.50
2018-12-24T03:16:45.001Z,11.60
2018-12-24T03:19:14.973Z,11.50
2018-12-24T03:21:44.624Z,11.50
2018-12-24T03:24:14.330Z,11.50
2018-12-24T03:26:44.283Z,11.50
2018-12-24T03:29:14.122Z,11.40
2018-12-24T03:31:43.781Z,11.40
2018-12-24T03:34:13.718Z,11.40
2018-12-24T03:36:43.456Z,11.30
2018-12-24T03:39:13.363Z,11.20
2018-12-24T03:41:43.116Z,11.20
2018-12-24T03:44:13.022Z,11.10
2018-12-24T03:46:42.670Z,11.10
2018-12-24T03:49:12.496Z,10.90
2018-12-24T03:51:42.232Z,10.70
2018-12-24T03:54:11.935Z,10.70
2018-12-24T03:56:41.721Z,10.60
2018-12-24T03:59:11.485Z,10.50
2018-12-24T04:01:41.020Z,10.50
2018-12-24T04:04:10.825Z,10.40
2018-12-24T04:06:40.508Z,10.40
2018-12-24T04:09:10.298Z,10.40
2018-12-24T04:11:40.099Z,10.40
2018-12-24T04:14:09.753Z,10.30
2018-12-24T04:16:39.623Z,10.40
2018-12-24T04:19:09.483Z,10.50
2018-12-24T04:21:39.214Z,10.40
2018-12-24T04:24:08.896Z,10.40
2018-12-24T04:26:38.600Z,10.40
2018-12-24T04:29:08.159Z,10.30
2018-12-24T04:31:37.801Z,10.20
2018-12-24T04:34:07.396Z,9.90
2018-12-24T04:36:37.001Z,9.60
2018-12-24T04:39:07.532Z,8.90
2018-12-24T04:42:08.179Z,8.60
2018-12-24T04:44:37.859Z,8.40
2018-12-24T04:47:07.890Z,8.10
2018-12-24T04:49:37.680Z,8.00
2018-12-24T04:52:07.493Z,7.70
2018-12-24T04:54:37.275Z,7.70
2018-12-24T04:57:06.924Z,7.60
2018-12-24T04:59:36.755Z,7.70
2018-12-24T05:02:06.431Z,7.60
2018-12-24T05:04:36.231Z,7.60
2018-12-24T05:07:05.980Z,7.50
2018-12-24T05:09:35.638Z,7.40
2018-12-24T05:12:05.327Z,7.30
2018-12-24T05:14:35.045Z,7.30
2018-12-24T05:17:04.688Z,7.20
2018-12-24T05:19:34.364Z,7.20
2018-12-24T05:22:04.026Z,7.20
2018-12-24T05:24:33.760Z,7.10
2018-12-24T05:27:03.457Z,7.00
2018-12-24T05:29:33.153Z,6.80
2018-12-24T05:32:02.838Z,6.70
2018-12-24T05:34:32.510Z,6.70
2018-12-24T05:37:02.101Z,6.60
2018-12-24T05:39:31.733Z,6.60
2018-12-24T05:42:01.421Z,6.70
2018-12-24T05:44:30.973Z,6.50
2018-12-24T05:47:00.610Z,6.60
2018-12-24T05:49:30.199Z,6.60
2018-12-24T05:51:59.801Z,6.40
2018-12-24T05:54:29.416Z,6.30
2018-12-24T05:56:58.999Z,6.20
2018-12-24T05:59:28.637Z,6.00
2018-12-24T06:01:58.308Z,5.90
2018-12-24T06:04:27.910Z,5.90
2018-12-24T06:06:57.661Z,6.00
2018-12-24T06:09:27.528Z,6.00
2018-12-24T06:11:57.257Z,5.90
2018-12-24T06:14:26.902Z,5.90
2018-12-24T06:16:56.547Z,5.80
2018-12-24T06:19:26.198Z,5.80
2018-12-24T06:22:04.749Z,5.70
2018-12-24T06:24:34.345Z,5.60
2018-12-24T06:27:04.048Z,5.60
2018-12-24T06:29:33.701Z,5.60
2018-12-24T06:32:03.372Z,5.60
2018-12-24T06:34:32.977Z,5.50
2018-12-24T06:37:02.712Z,5.50
2018-12-24T06:39:32.401Z,5.40
2018-12-24T06:42:01.947Z,5.30
2018-12-24T06:44:31.619Z,5.30
2018-12-24T06:47:01.206Z,5.20
2018-12-24T06:49:30.812Z,5.10
2018-12-24T06:52:00.501Z,5.20
2018-12-24T06:54:30.065Z,5.00
2018-12-24T06:56:59.687Z,5.10
2018-12-24T06:59:29.253Z,5.00
2018-12-24T07:01:58.864Z,4.80
2018-12-24T07:04:28.442Z,4.80
2018-12-24T07:06:58.293Z,4.80
2018-12-24T07:09:27.912Z,4.80
2018-12-24T07:11:57.653Z,4.60
2018-12-24T07:14:27.421Z,4.50
2018-12-24T07:16:57.031Z,4.30
2018-12-24T07:19:26.866Z,4.50
2018-12-24T07:21:56.777Z,4.60
2018-12-24T07:24:26.628Z,4.60
2018-12-24T07:26:56.495Z,4.50
2018-12-24T07:29:26.615Z,4.50
2018-12-24T07:31:56.900Z,4.40
2018-12-24T07:34:32.330Z,4.40
2018-12-24T07:36:58.372Z,4.40
2018-12-24T07:39:28.189Z,4.40
2018-12-24T07:41:58.047Z,4.30
2018-12-24T07:44:27.850Z,4.30
2018-12-24T07:46:57.653Z,3.90
2018-12-24T07:49:27.451Z,3.90
2018-12-24T07:51:57.533Z,3.90
2018-12-24T07:54:27.930Z,3.80
2018-12-24T07:56:58.228Z,3.50
2018-12-24T07:59:28.084Z,3.20
2018-12-24T08:01:57.960Z,3.40
2018-12-24T08:04:28.884Z,3.30
2018-12-24T08:06:59.156Z,3.10
2018-12-24T08:09:32.108Z,3.10
2018-12-24T08:12:02.068Z,3.20
2018-12-24T08:14:33.168Z,3.20
2018-12-24T08:17:45.522Z,3.20
2018-12-24T08:20:14.933Z,3.10
2018-12-24T08:22:44.282Z,3.10
2018-12-24T08:25:13.707Z,3.10
2018-12-24T08:27:43.030Z,3.00
2018-12-24T08:30:12.888Z,2.90
2018-12-24T08:32:42.183Z,3.00
2018-12-24T08:35:11.541Z,3.00
2018-12-24T08:37:41.091Z,2.80
2018-12-24T08:40:10.695Z,2.80
2018-12-24T08:42:40.192Z,2.80
2018-12-24T08:45:09.763Z,2.70
2018-12-24T08:47:39.245Z,2.70
2018-12-24T08:50:08.556Z,2.70
2018-12-24T08:52:37.832Z,2.60
2018-12-24T08:55:07.197Z,2.70
2018-12-24T08:57:36.572Z,2.60
2018-12-24T09:00:06.168Z,2.60
2018-12-24T09:02:35.384Z,2.70
2018-12-24T09:05:04.785Z,2.70
2018-12-24T09:07:34.147Z,2.80
2018-12-24T09:10:03.687Z,2.80
2018-12-24T09:12:33.089Z,2.70
2018-12-24T09:15:02.424Z,2.60
2018-12-24T09:17:32.008Z,2.80
2018-12-24T09:20:01.502Z,2.90
2018-12-24T09:22:30.765Z,3.00
2018-12-24T09:25:00.336Z,2.90
2018-12-24T09:27:29.798Z,3.10
2018-12-24T09:29:59.514Z,3.10
2018-12-24T09:32:28.991Z,3.20
2018-12-24T09:34:58.438Z,3.10
2018-12-24T09:37:27.952Z,3.10
2018-12-24T09:39:57.507Z,3.10
2018-12-24T09:42:27.320Z,3.10
2018-12-24T09:44:59.103Z,3.00
2018-12-24T09:47:28.212Z,3.10
2018-12-24T09:49:57.576Z,3.20
2018-12-24T09:52:27.388Z,3.30
2018-12-24T09:54:57.057Z,3.20
2018-12-24T09:57:26.703Z,3.20
2018-12-24T09:59:56.300Z,3.10
2018-12-24T10:02:32.165Z,3.10
2018-12-24T10:05:01.954Z,3.20
2018-12-24T10:07:40.408Z,3.20
2018-12-24T10:10:13.076Z,3.10
2018-12-24T10:12:42.838Z,3.20
2018-12-24T10:15:12.471Z,3.20
2018-12-24T10:17:42.104Z,3.20
2018-12-24T10:20:14.151Z,3.20
2018-12-24T10:22:43.757Z,3.30
2018-12-24T10:25:13.214Z,3.30
2018-12-24T10:27:42.549Z,3.40
2018-12-24T10:30:12.258Z,3.30
2018-12-24T10:32:41.601Z,3.40
2018-12-24T10:35:11.143Z,3.50
2018-12-24T10:37:41.150Z,3.60
2018-12-24T10:40:15.531Z,3.60
2018-12-24T10:42:44.934Z,3.70
2018-12-24T10:45:39.202Z,3.80
2018-12-24T10:48:08.661Z,3.90
2018-12-24T10:50:38.028Z,4.00
2018-12-24T10:53:07.447Z,4.00
2018-12-24T10:55:36.744Z,4.00
2018-12-24T10:58:06.333Z,3.90
2018-12-24T11:00:35.568Z,3.90
2018-12-24T11:03:05.149Z,3.90
2018-12-24T11:05:34.938Z,3.80
2018-12-24T11:08:04.485Z,3.70
2018-12-24T11:10:34.040Z,3.70
2018-12-24T11:13:03.452Z,3.70
2018-12-24T11:15:32.820Z,3.70
2018-12-24T11:18:02.173Z,3.70
2018-12-24T11:20:31.593Z,3.70
2018-12-24T11:23:01.066Z,3.70
2018-12-24T11:25:30.476Z,3.60
2018-12-24T11:28:00.001Z,3.60
2018-12-24T11:30:37.470Z,3.60
2018-12-24T11:33:07.113Z,3.60
2018-12-24T11:35:36.592Z,3.50
2018-12-24T11:38:05.881Z,3.50
2018-12-24T11:40:35.294Z,3.50
2018-12-24T11:43:04.690Z,3.50
2018-12-24T11:45:36.043Z,3.50
2018-12-24T11:48:05.137Z,3.40
2018-12-24T11:50:34.593Z,3.30
2018-12-24T11:53:03.948Z,3.30
2018-12-24T11:55:33.414Z,3.20
2018-12-24T11:58:02.752Z,3.20
2018-12-24T12:00:32.224Z,3.20
2018-12-24T12:03:01.967Z,3.20
2018-12-24T12:05:32.595Z,3.30
2018-12-24T12:08:02.333Z,3.40
2018-12-24T12:10:31.711Z,3.40
2018-12-24T12:13:01.523Z,3.30
2018-12-24T12:15:30.916Z,3.30
2018-12-24T12:18:00.628Z,3.40
2018-12-24T12:20:33.090Z,3.50
2018-12-24T12:23:02.763Z,3.40
2018-12-24T12:25:32.327Z,3.50
2018-12-24T12:28:01.852Z,3.50
2018-12-24T12:30:53.242Z,3.70
2018-12-24T12:33:22.753Z,3.70
2018-12-24T12:35:52.322Z,3.70
2018-12-24T12:38:29.551Z,3.80
2018-12-24T12:40:52.947Z,3.80
2018-12-24T12:43:22.709Z,3.80
2018-12-24T12:45:52.225Z,3.80
2018-12-24T12:48:21.731Z,3.80
2018-12-24T12:50:51.236Z,3.70
2018-12-24T12:53:20.535Z,3.80
2018-12-24T12:55:49.939Z,3.60
2018-12-24T12:58:19.595Z,3.70
2018-12-24T13:00:49.461Z,3.80
2018-12-24T13:03:19.138Z,3.70
2018-12-24T13:05:48.744Z,3.80
2018-12-24T13:08:18.499Z,3.80
2018-12-24T13:10:48.057Z,3.90
2018-12-24T13:13:17.434Z,3.90
2018-12-24T13:15:46.945Z,4.00
2018-12-24T13:18:16.759Z,4.30
2018-12-24T13:20:46.292Z,4.40
2018-12-24T13:23:15.761Z,4.50
2018-12-24T13:25:45.277Z,4.60
2018-12-24T13:28:14.938Z,4.60
2018-12-24T13:30:44.313Z,4.70
2018-12-24T13:33:14.109Z,4.80
2018-12-24T13:35:43.665Z,4.90
2018-12-24T13:38:13.269Z,4.90
2018-12-24T13:40:42.694Z,4.90
2018-12-24T13:43:12.361Z,5.00
2018-12-24T13:45:45.030Z,5.10
2018-12-24T13:48:14.821Z,5.10
2018-12-24T13:50:44.685Z,5.20
2018-12-24T13:53:14.669Z,5.10
2018-12-24T13:55:44.689Z,5.20
2018-12-24T13:58:14.316Z,5.20
2018-12-24T14:00:43.922Z,5.20
2018-12-24T14:03:13.532Z,5.10
2018-12-24T14:05:44.000Z,5.10
2018-12-24T14:08:13.514Z,5.10
2018-12-24T14:10:43.078Z,5.10
2018-12-24T14:13:12.826Z,4.90
2018-12-24T14:16:02.670Z,4.80
2018-12-24T14:22:40.986Z,4.70
2018-12-24T14:25:10.549Z,4.70
2018-12-24T14:27:40.431Z,4.70
2018-12-24T14:30:11.735Z,4.70
2018-12-24T14:32:43.126Z,4.60
2018-12-24T14:35:12.959Z,4.60
2018-12-24T14:37:42.787Z,4.40
2018-12-24T14:40:12.462Z,4.30
2018-12-24T14:42:42.320Z,4.30
2018-12-24T14:45:12.091Z,4.20
2018-12-24T14:47:41.762Z,4.30
2018-12-24T14:50:11.696Z,4.40
2018-12-24T14:52:41.630Z,4.20
2018-12-24T14:55:11.688Z,4.10
2018-12-24T14:57:53.640Z,3.80
2018-12-24T15:00:24.685Z,3.90
2018-12-24T15:02:54.507Z,3.90
2018-12-24T15:05:24.034Z,3.90
2018-12-24T15:07:53.815Z,3.90
2018-12-24T15:10:25.443Z,3.90
2018-12-24T15:12:55.317Z,3.90
2018-12-24T15:15:25.091Z,4.00
2018-12-24T15:17:54.873Z,3.80
2018-12-24T15:20:24.520Z,3.80
2018-12-24T15:22:54.224Z,3.60
2018-12-24T15:25:23.930Z,3.60
2018-12-24T15:27:53.769Z,3.70
2018-12-24T15:30:23.492Z,3.60
2018-12-24T15:32:53.981Z,3.40
2018-12-24T15:35:23.969Z,3.60
2018-12-24T15:37:54.118Z,3.60
2018-12-24T15:40:23.614Z,3.60
2018-12-24T15:42:53.304Z,3.60
2018-12-24T15:45:22.825Z,3.60
2018-12-24T15:47:51.933Z,3.70
2018-12-24T15:50:21.098Z,3.70
2018-12-24T15:52:50.292Z,3.70
2018-12-24T15:55:28.706Z,3.70
2018-12-24T15:57:57.931Z,3.50
2018-12-24T16:00:27.292Z,3.50
2018-12-24T16:03:03.528Z,3.40
2018-12-24T16:05:32.342Z,3.40
2018-12-24T16:08:01.557Z,3.20
2018-12-24T16:10:30.732Z,3.20
2018-12-24T16:13:01.510Z,3.20
2018-12-24T16:15:30.832Z,3.20
2018-12-24T16:17:59.982Z,3.10
2018-12-24T16:20:29.190Z,3.10
2018-12-24T16:22:58.388Z,3.20
2018-12-24T16:25:27.597Z,3.10
2018-12-24T16:28:00.367Z,3.20
2018-12-24T16:30:29.541Z,3.10
2018-12-24T16:32:58.777Z,3.20
2018-12-24T16:35:27.884Z,3.20
2018-12-24T16:37:57.213Z,3.20
2018-12-24T16:40:26.524Z,3.30
2018-12-24T16:42:55.729Z,3.40
2018-12-24T16:45:24.996Z,3.40
2018-12-24T16:47:54.279Z,3.50
2018-12-24T16:50:23.588Z,3.50
2018-12-24T16:52:52.689Z,3.50
2018-12-24T16:55:21.844Z,3.50
2018-12-24T16:57:51.068Z,3.50
2018-12-24T17:00:20.329Z,3.50
2018-12-24T17:02:49.556Z,3.50
2018-12-24T17:05:18.777Z,3.50
2018-12-24T17:07:47.985Z,3.60
2018-12-24T17:10:17.157Z,3.60
2018-12-24T17:12:46.552Z,3.60
2018-12-24T17:15:15.701Z,3.60
2018-12-24T17:17:44.832Z,3.70
2018-12-24T17:20:14.104Z,3.60
2018-12-24T17:22:43.348Z,3.70
2018-12-24T17:25:12.567Z,3.70
2018-12-24T17:27:41.734Z,3.70
2018-12-24T17:30:10.981Z,3.70
2018-12-24T17:32:40.159Z,3.70
2018-12-24T17:35:09.377Z,3.70
2018-12-24T17:37:38.617Z,3.60
2018-12-24T17:40:07.848Z,3.60
2018-12-24T17:42:37.247Z,3.60
2018-12-24T17:45:06.848Z,3.70
2018-12-24T17:47:36.319Z,3.60
2018-12-24T17:50:07.003Z,3.70
2018-12-24T17:52:39.513Z,3.70
2018-12-24T17:55:09.086Z,3.70
2018-12-24T17:57:41.820Z,3.60
2018-12-24T18:00:11.387Z,3.60
2018-12-24T18:02:40.875Z,3.50
2018-12-24T18:05:10.790Z,3.50
2018-12-24T18:07:40.193Z,3.60
2018-12-24T18:10:09.654Z,3.50
2018-12-24T18:12:39.196Z,3.40
2018-12-24T18:15:09.323Z,3.50
2018-12-24T18:17:46.303Z,3.40
2018-12-24T18:20:15.911Z,3.50
2018-12-24T18:22:53.119Z,3.50
2018-12-24T18:25:22.704Z,3.50
2018-12-24T18:27:58.494Z,3.50
2018-12-24T18:30:28.251Z,3.30
2018-12-24T18:32:57.947Z,3.40
2018-12-24T18:35:27.656Z,3.40
2018-12-24T18:37:57.089Z,3.50
2018-12-24T18:40:26.646Z,3.60
2018-12-24T18:42:56.158Z,3.60
2018-12-24T18:45:25.501Z,3.60
2018-12-24T18:47:55.129Z,3.60
2018-12-24T18:50:25.023Z,3.60
2018-12-24T18:52:57.994Z,3.50
2018-12-24T18:55:33.310Z,3.40
2018-12-24T18:58:03.206Z,3.30
2018-12-24T19:00:32.934Z,3.40
2018-12-24T19:03:02.812Z,3.50
2018-12-24T19:05:32.356Z,3.40
2018-12-24T19:08:01.851Z,3.40
2018-12-24T19:10:39.291Z,3.30
2018-12-24T19:13:09.035Z,3.40
2018-12-24T19:15:38.675Z,3.40
2018-12-24T19:18:16.286Z,3.40
2018-12-24T19:20:45.982Z,3.50
2018-12-24T19:23:15.154Z,3.50
2018-12-24T19:25:44.342Z,3.50
2018-12-24T19:28:13.694Z,3.50
2018-12-24T19:30:42.925Z,3.50
2018-12-24T19:33:12.160Z,3.50
2018-12-24T19:35:41.359Z,3.50
2018-12-24T19:38:10.608Z,3.50
2018-12-24T19:40:39.812Z,3.60
2018-12-24T19:43:08.998Z,3.50
2018-12-24T19:45:38.232Z,3.40
2018-12-24T19:48:07.556Z,3.50
2018-12-24T19:50:36.879Z,3.50
2018-12-24T19:53:09.525Z,3.60
2018-12-24T19:55:38.734Z,3.50
2018-12-24T19:58:07.923Z,3.40
2018-12-24T20:00:37.294Z,3.40
2018-12-24T20:03:06.483Z,3.30
2018-12-24T20:05:35.620Z,3.20
2018-12-24T20:08:04.794Z,3.30
2018-12-24T20:10:34.056Z,3.40
2018-12-24T20:13:03.213Z,3.30
2018-12-24T20:15:32.449Z,3.40
2018-12-24T20:18:01.768Z,3.40
2018-12-24T20:20:30.883Z,3.30
2018-12-24T20:23:00.141Z,3.30
2018-12-24T20:25:29.449Z,3.30
2018-12-24T20:27:58.649Z,3.40
2018-12-24T20:30:27.867Z,3.40
2018-12-24T20:32:57.076Z,3.50
2018-12-24T20:35:26.212Z,3.50
2018-12-24T20:37:55.397Z,3.50
2018-12-24T20:40:24.561Z,3.40
2018-12-24T20:42:54.667Z,3.40
2018-12-24T20:45:24.629Z,3.40
2018-12-24T20:47:54.804Z,3.50
2018-12-24T20:50:41.921Z,3.50
2018-12-24T20:53:11.521Z,3.40
2018-12-24T20:55:41.547Z,3.50
2018-12-24T20:58:11.636Z,3.50
2018-12-24T21:00:41.755Z,3.40
2018-12-24T21:03:11.392Z,3.40
2018-12-24T21:05:41.074Z,3.40
2018-12-24T21:08:10.387Z,3.40
2018-12-24T21:10:39.661Z,3.40
2018-12-24T21:13:08.805Z,3.40
2018-12-24T21:15:38.188Z,3.50
2018-12-24T21:18:14.848Z,3.40
2018-12-24T21:20:38.233Z,3.40
2018-12-24T21:23:07.401Z,3.40
2018-12-24T21:25:36.632Z,3.30
2018-12-24T21:28:07.376Z,3.30
2018-12-24T21:30:36.823Z,3.40
2018-12-24T21:33:06.169Z,3.50
2018-12-24T21:35:35.414Z,3.40
2018-12-24T21:38:04.672Z,3.40
2018-12-24T21:40:34.587Z,3.40
2018-12-24T21:43:04.600Z,3.40
2018-12-24T21:45:34.375Z,3.40
2018-12-24T21:48:03.639Z,3.40
2018-12-24T21:50:36.187Z,3.40
2018-12-24T21:53:10.067Z,3.20
2018-12-24T21:55:39.683Z,3.20
2018-12-24T21:58:09.365Z,3.10
2018-12-24T22:00:38.993Z,3.20
2018-12-24T22:03:08.525Z,3.30
2018-12-24T22:05:38.012Z,3.30
2018-12-24T22:08:07.590Z,3.30
2018-12-24T22:10:37.245Z,3.30
2018-12-24T22:13:06.542Z,3.20
2018-12-24T22:15:36.099Z,3.20
2018-12-24T22:18:05.615Z,3.20
2018-12-24T22:20:35.221Z,3.20
2018-12-24T22:23:04.704Z,3.00
2018-12-24T22:25:34.454Z,3.10
2018-12-24T22:28:04.004Z,3.20
2018-12-24T22:30:35.102Z,3.20
2018-12-24T22:33:04.672Z,3.20
2018-12-24T22:35:34.144Z,3.20
2018-12-24T22:38:03.626Z,3.10
2018-12-24T22:40:33.128Z,3.20
2018-12-24T22:43:02.529Z,3.20
2018-12-24T22:45:32.023Z,3.20
2018-12-24T22:48:06.113Z,3.20
2018-12-24T22:50:38.899Z,3.10
2018-12-24T22:53:08.527Z,3.10
2018-12-24T22:55:37.872Z,3.10
2018-12-24T22:58:07.602Z,3.20
2018-12-24T23:00:45.103Z,3.10
2018-12-24T23:03:15.079Z,3.00
2018-12-24T23:05:44.680Z,3.00
2018-12-24T23:08:14.214Z,3.10
2018-12-24T23:10:43.709Z,3.10
2018-12-24T23:13:12.889Z,3.10
2018-12-24T23:15:42.025Z,3.10
2018-12-24T23:18:11.140Z,3.10
2018-12-24T23:20:40.297Z,3.10
2018-12-24T23:23:09.499Z,3.00
2018-12-24T23:25:38.728Z,3.00
2018-12-24T23:28:07.864Z,3.00
2018-12-24T23:30:37.365Z,3.00
2018-12-24T23:33:06.716Z,3.00
2018-12-24T23:35:35.893Z,3.00
2018-12-24T23:38:05.065Z,3.00
2018-12-24T23:40:34.321Z,2.90
2018-12-24T23:43:03.539Z,3.00
2018-12-24T23:45:32.819Z,2.90
2018-12-24T23:48:02.060Z,2.90
2018-12-24T23:50:31.253Z,2.80
2018-12-24T23:53:00.448Z,2.90
2018-12-24T23:55:29.624Z,2.90
2018-12-24T23:57:58.912Z,2.80
